Time;durP1;ratioP1;P1;durP2;ratioP2;P2;SDS_P1;SDS_P2;PMS_P1;PMS_P2;Temp;Humidity;BMP_temperature;BMP_pressure;BME280_temperature;BME280_humidity;BME280_pressure;Samples;Min_cycle;Max_cycle;Signal;HPM_P1;HPM_P2
2023/05/12 00:03:11;;;;;;;;;;;;;;;26.83;42.47;93869.16;4933128;28;6981;-61
2023/05/12 00:06:22;;;;;;;;;;;;;;;26.85;42.30;93863.09;4949131;28;7210;-61
2023/05/12 00:12:28;;;;;;;;;;;;;;;26.84;42.41;93861.59;4968852;28;6828;-61
2023/05/12 00:15:11;;;;;;;;;;;;;;;26.85;42.69;93857.56;4958800;28;7007;-61
2023/05/12 00:17:37;;;;;;;;;;;;;;;26.83;42.52;93857.38;4958144;28;7555;-61
2023/05/12 00:20:19;;;;;;;;;;;;;;;26.82;42.16;93862.13;4971018;28;7386;-60
2023/05/12 00:23:23;;;;;;;;;;;;;;;26.82;42.61;93864.16;4959428;28;9123;-61
2023/05/12 00:25:57;;;;;;;;;;;;;;;26.80;42.56;93855.66;4929277;29;9396;-61
2023/05/12 00:29:13;;;;;;;;;;;;;;;26.78;42.64;93853.44;4937393;28;8847;-61
2023/05/12 00:31:40;;;;;;;;;;;;;;;26.76;43.09;93856.00;4976707;28;9546;-61
2023/05/12 00:34:42;;;;;;;;;;;;;;;26.76;42.76;93844.19;4991063;28;7307;-61
2023/05/12 00:37:45;;;;;;;;;;;;;;;26.76;42.81;93852.47;4969363;28;7459;-61
2023/05/12 00:40:30;;;;;;;;;;;;;;;26.74;42.74;93849.50;4991426;28;7448;-61
2023/05/12 00:43:15;;;;;;;;;;;;;;;26.73;43.31;93848.03;4984576;28;7045;-61
2023/05/12 00:46:01;;;;;;;;;;;;;;;26.75;43.19;93842.72;4981214;28;7309;-61
2023/05/12 00:48:47;;;;;;;;;;;;;;;26.74;42.96;93838.47;4990771;28;7074;-61
2023/05/12 00:51:24;;;;;;;;;;;;;;;26.74;42.54;93844.75;4959441;28;9194;-61
2023/05/12 00:54:21;;;;;;;;;;;;;;;26.73;43.04;93848.03;4966730;28;7732;-61
2023/05/12 00:56:59;;;;;;;;;;;;;;;26.70;42.84;93841.53;5013841;28;9880;-61
2023/05/12 00:59:25;;;;;;;;;;;;;;;26.69;42.94;93845.56;5022822;28;7468;-61
2023/05/12 01:02:02;;;;;;;;;;;;;;;26.69;43.19;93836.53;5035070;28;7212;-61
2023/05/12 01:05:02;;;;;;;;;;;;;;;26.69;43.06;93839.28;5045692;28;8729;-61
2023/05/12 01:07:38;;;;;;;;;;;;;;;26.68;42.88;93835.81;5019493;28;7400;-61
2023/05/12 01:10:23;;;;;;;;;;;;;;;26.69;42.84;93839.28;5011101;28;7097;-61
2023/05/12 01:13:26;;;;;;;;;;;;;;;26.66;43.10;93837.63;4995844;28;8258;-61
2023/05/12 01:16:08;;;;;;;;;;;;;;;26.65;42.62;93836.13;4911033;28;9124;-61
2023/05/12 01:22:16;;;;;;;;;;;;;;;26.61;43.39;93830.19;4926266;29;7527;-61
2023/05/12 01:25:10;;;;;;;;;;;;;;;26.62;43.11;93826.16;4926251;29;8754;-61
2023/05/12 01:27:52;;;;;;;;;;;;;;;26.63;43.55;93827.63;4925149;29;7050;-61
2023/05/12 01:30:42;;;;;;;;;;;;;;;26.62;42.98;93828.91;4929195;29;7009;-61
2023/05/12 01:33:20;;;;;;;;;;;;;;;26.62;42.58;93823.41;4928223;29;7433;-61
2023/05/12 01:36:06;;;;;;;;;;;;;;;26.60;42.90;93825.94;4927842;29;9388;-61
2023/05/12 01:38:33;;;;;;;;;;;;;;;26.61;43.16;93832.94;4915546;29;7645;-61
2023/05/12 01:41:10;;;;;;;;;;;;;;;26.61;42.66;93827.41;4914699;29;7149;-61
2023/05/12 01:44:01;;;;;;;;;;;;;;;26.62;42.84;93831.69;4960421;28;9309;-60
2023/05/12 01:46:58;;;;;;;;;;;;;;;26.57;42.75;93825.00;4972294;28;7240;-61
2023/05/12 01:50:02;;;;;;;;;;;;;;;26.58;42.82;93834.72;4904497;29;9152;-61
2023/05/12 01:52:52;;;;;;;;;;;;;;;26.58;43.02;93839.50;4925315;29;9068;-61
2023/05/12 01:55:20;;;;;;;;;;;;;;;26.55;43.50;93835.06;4934810;28;9083;-61
2023/05/12 01:58:19;;;;;;;;;;;;;;;26.54;43.16;93837.06;4935041;28;7141;-60
2023/05/12 02:00:55;;;;;;;;;;;;;;;26.53;42.93;93837.63;4972693;28;9045;-60
2023/05/12 02:03:21;;;;;;;;;;;;;;;26.53;43.38;93832.84;4968330;28;6999;-61
2023/05/12 02:05:48;;;;;;;;;;;;;;;26.51;43.29;93840.88;4953251;28;9046;-61
2023/05/12 02:08:14;;;;;;;;;;;;;;;26.50;43.50;93836.66;4958639;28;9020;-61
2023/05/12 02:10:43;;;;;;;;;;;;;;;26.51;43.00;93840.16;4964248;28;7263;-61
2023/05/12 02:13:19;;;;;;;;;;;;;;;26.50;43.60;93833.91;4952893;28;7125;-61
2023/05/12 02:15:54;;;;;;;;;;;;;;;26.49;43.41;93837.91;4969445;28;9150;-61
2023/05/12 02:18:22;;;;;;;;;;;;;;;26.51;43.11;93834.63;4943353;28;7260;-61
2023/05/12 02:20:59;;;;;;;;;;;;;;;26.50;43.60;93833.16;4956775;28;7213;-61
2023/05/12 02:23:26;;;;;;;;;;;;;;;26.49;43.28;93826.16;4956764;28;9338;-61
2023/05/12 02:25:52;;;;;;;;;;;;;;;26.46;43.07;93833.47;5003577;28;7030;-61
2023/05/12 02:28:18;;;;;;;;;;;;;;;26.48;43.67;93832.94;5036813;28;7773;-61
2023/05/12 02:30:48;;;;;;;;;;;;;;;26.48;43.64;93835.69;5040690;28;9010;-61
2023/05/12 02:33:15;;;;;;;;;;;;;;;26.45;43.62;93829.22;5041940;28;9199;-61
2023/05/12 02:35:43;;;;;;;;;;;;;;;26.48;42.74;93836.44;5017109;28;8907;-61
2023/05/12 02:38:18;;;;;;;;;;;;;;;26.46;43.06;93832.72;5026113;28;7268;-61
2023/05/12 02:40:57;;;;;;;;;;;;;;;26.44;43.51;93830.50;5039113;28;9329;-61
2023/05/12 02:43:27;;;;;;;;;;;;;;;26.45;43.30;93834.72;5023380;28;9297;-61
2023/05/12 02:45:53;;;;;;;;;;;;;;;26.45;42.88;93831.97;5037129;28;8934;-61
2023/05/12 02:48:19;;;;;;;;;;;;;;;26.44;43.10;93833.25;5024620;28;9143;-61
2023/05/12 02:50:45;;;;;;;;;;;;;;;26.43;43.46;93834.53;5015704;28;7281;-61
2023/05/12 02:53:12;;;;;;;;;;;;;;;26.44;43.59;93825.00;5035681;28;7092;-60
2023/05/12 02:55:39;;;;;;;;;;;;;;;26.42;43.82;93827.53;5020542;28;7661;-61
2023/05/12 02:58:05;;;;;;;;;;;;;;;26.41;43.13;93826.03;5039411;28;9011;-61
2023/05/12 03:00:31;;;;;;;;;;;;;;;26.43;43.09;93831.00;5030256;28;7312;-60
2023/05/12 03:03:06;;;;;;;;;;;;;;;26.44;43.55;93829.75;5049569;28;7021;-61
2023/05/12 03:05:47;;;;;;;;;;;;;;;26.41;43.37;93830.81;5021313;28;7689;-61
2023/05/12 03:08:23;;;;;;;;;;;;;;;26.35;43.47;93822.66;5033773;28;9203;-61
2023/05/12 03:11:01;;;;;;;;;;;;;;;26.40;43.65;93826.56;5045949;28;7222;-61
2023/05/12 03:13:42;;;;;;;;;;;;;;;26.40;43.88;93830.09;5026204;28;7280;-61
2023/05/12 03:16:21;;;;;;;;;;;;;;;26.40;42.94;93821.06;5033256;28;7247;-61
2023/05/12 03:19:01;;;;;;;;;;;;;;;26.39;43.73;93820.31;5035665;28;8719;-61
2023/05/12 03:21:28;;;;;;;;;;;;;;;26.37;43.08;93820.09;5024759;28;8679;-61
2023/05/12 03:24:14;;;;;;;;;;;;;;;26.37;43.23;93833.88;5026037;28;8740;-61
2023/05/12 03:26:42;;;;;;;;;;;;;;;26.37;43.79;93824.88;5048167;28;9412;-61
2023/05/12 03:29:23;;;;;;;;;;;;;;;26.38;43.22;93826.38;5056053;28;9413;-61
2023/05/12 03:31:50;;;;;;;;;;;;;;;26.35;43.15;93824.66;5049527;28;7127;-61
2023/05/12 03:34:31;;;;;;;;;;;;;;;26.35;43.12;93811.63;5038997;28;8222;-61
2023/05/12 03:37:08;;;;;;;;;;;;;;;26.35;43.68;93822.66;5034952;28;9157;-61
2023/05/12 03:39:37;;;;;;;;;;;;;;;26.35;43.10;93816.38;5035827;28;8278;-61
2023/05/12 03:42:05;;;;;;;;;;;;;;;26.35;43.79;93813.63;5050969;28;9107;-61
2023/05/12 03:44:57;;;;;;;;;;;;;;;26.40;43.53;93815.53;5054239;28;9695;-61
2023/05/12 03:47:48;;;;;;;;;;;;;;;26.40;43.17;93810.78;4978568;28;7496;-61
2023/05/12 03:50:15;;;;;;;;;;;;;;;26.36;42.88;93801.34;4993060;28;9391;-61
2023/05/12 03:52:54;;;;;;;;;;;;;;;26.35;43.59;93802.59;4987534;28;9262;-61
2023/05/12 03:55:56;;;;;;;;;;;;;;;26.33;43.18;93802.38;4987431;28;8701;-61
2023/05/12 03:58:31;;;;;;;;;;;;;;;26.32;43.83;93803.66;4971113;28;8756;-61
2023/05/12 04:01:04;;;;;;;;;;;;;;;26.32;43.71;93804.41;4949189;28;7045;-61
2023/05/12 04:03:32;;;;;;;;;;;;;;;26.31;43.40;93802.91;4947523;28;7372;-61
2023/05/12 04:06:32;;;;;;;;;;;;;;;26.33;43.10;93805.88;4965523;28;9328;-61
2023/05/12 04:09:08;;;;;;;;;;;;;;;26.34;43.30;93798.38;4955879;28;7420;-61
2023/05/12 04:11:55;;;;;;;;;;;;;;;26.33;43.72;93799.63;4948558;28;7211;-61
2023/05/12 04:14:30;;;;;;;;;;;;;;;26.30;43.06;93800.69;4948578;28;7231;-61
2023/05/12 04:21:10;;;;;;;;;;;;;;;26.31;43.66;93799.41;4938120;28;7112;-61
2023/05/12 04:23:44;;;;;;;;;;;;;;;26.27;43.05;93799.75;4932159;29;9025;-61
2023/05/12 04:26:21;;;;;;;;;;;;;;;26.31;43.87;93802.16;4916238;29;7233;-61
2023/05/12 04:28:48;;;;;;;;;;;;;;;26.30;43.42;93815.22;4917616;29;7362;-61
2023/05/12 04:31:35;;;;;;;;;;;;;;;26.31;43.10;93815.97;4900664;29;7303;-61
2023/05/12 04:34:19;;;;;;;;;;;;;;;26.29;42.93;93807.47;4911470;29;7330;-61
2023/05/12 04:37:05;;;;;;;;;;;;;;;26.32;43.36;93820.22;4916341;29;7051;-61
2023/05/12 04:39:46;;;;;;;;;;;;;;;26.30;43.51;93822.72;4932507;28;9190;-61
2023/05/12 04:42:12;;;;;;;;;;;;;;;26.30;43.10;93828.25;4920543;29;7162;-61
2023/05/12 04:45:08;;;;;;;;;;;;;;;26.30;42.86;93828.25;4952489;28;9071;-61
2023/05/12 04:47:59;;;;;;;;;;;;;;;26.28;43.27;93820.50;4970899;28;7358;-61
2023/05/12 04:51:09;;;;;;;;;;;;;;;26.30;43.44;93820.72;4974802;28;9199;-61
2023/05/12 04:53:46;;;;;;;;;;;;;;;26.27;43.46;93818.28;4953853;28;9090;-61
2023/05/12 04:56:15;;;;;;;;;;;;;;;26.27;43.75;93823.81;4967354;28;9579;-61
2023/05/12 04:58:53;;;;;;;;;;;;;;;26.28;43.58;93830.78;5053151;28;9129;-61
2023/05/12 05:01:31;;;;;;;;;;;;;;;26.26;43.63;93827.81;5027181;28;7047;-61
2023/05/12 05:04:26;;;;;;;;;;;;;;;26.24;43.62;93833.88;5043810;28;7537;-62
2023/05/12 05:06:56;;;;;;;;;;;;;;;26.24;43.10;93833.88;5031497;28;9076;-61
2023/05/12 05:09:50;;;;;;;;;;;;;;;26.25;43.29;93835.38;5042899;28;7202;-61
2023/05/12 05:12:31;;;;;;;;;;;;;;;26.22;43.39;93835.66;4991575;28;7209;-61
2023/05/12 05:15:20;;;;;;;;;;;;;;;26.22;43.66;93830.91;4970398;28;8935;-61
2023/05/12 05:18:16;;;;;;;;;;;;;;;26.24;43.39;93827.59;4972158;28;9075;-61
2023/05/12 05:21:10;;;;;;;;;;;;;;;26.22;43.41;93832.91;4984992;28;8718;-61
2023/05/12 05:23:48;;;;;;;;;;;;;;;26.21;43.47;93831.44;4988960;28;7579;-61
2023/05/12 05:26:16;;;;;;;;;;;;;;;26.20;43.33;93833.44;4991733;28;9266;-61
2023/05/12 05:28:42;;;;;;;;;;;;;;;26.21;43.49;93840.44;4983501;28;7256;-61
2023/05/12 05:31:17;;;;;;;;;;;;;;;26.20;43.71;93836.19;4974032;28;9139;-61
2023/05/12 05:34:19;;;;;;;;;;;;;;;26.22;43.71;93841.19;4974247;28;7656;-61
2023/05/12 05:36:45;;;;;;;;;;;;;;;26.24;44.56;93836.63;4972321;28;7838;-61
2023/05/12 05:39:36;;;;;;;;;;;;;;;26.28;44.15;93837.06;4970035;28;9335;-61
2023/05/12 05:42:17;;;;;;;;;;;;;;;26.35;43.92;93849.47;4976131;28;7180;-61
2023/05/12 05:44:44;;;;;;;;;;;;;;;26.35;43.34;93841.94;4971151;28;9114;-61
2023/05/12 05:47:19;;;;;;;;;;;;;;;26.40;43.46;93841.13;4976818;28;9026;-61
2023/05/12 05:49:55;;;;;;;;;;;;;;;26.46;43.48;93847.25;5008053;28;7304;-61
2023/05/12 05:52:27;;;;;;;;;;;;;;;26.47;43.49;93842.50;5046530;28;9300;-61
2023/05/12 05:55:23;;;;;;;;;;;;;;;26.53;43.44;93840.38;5032469;28;7528;-61
2023/05/12 05:58:06;;;;;;;;;;;;;;;26.53;43.21;93832.09;4990995;28;6988;-60
2023/05/12 06:00:32;;;;;;;;;;;;;;;26.60;43.33;93842.50;4985232;28;7229;-61
2023/05/12 06:03:07;;;;;;;;;;;;;;;26.60;43.18;93839.75;4990327;28;8995;-61
2023/05/12 06:06:04;;;;;;;;;;;;;;;26.64;43.39;93834.66;5005197;28;7367;-61
2023/05/12 06:08:32;;;;;;;;;;;;;;;26.61;43.09;93836.44;4951214;28;7245;-61
2023/05/12 06:11:00;;;;;;;;;;;;;;;26.67;42.94;93841.84;4941965;28;8173;-61
2023/05/12 06:13:58;;;;;;;;;;;;;;;26.71;42.15;93853.28;4959232;28;7140;-61
2023/05/12 06:16:48;;;;;;;;;;;;;;;26.81;41.95;93846.13;4933878;28;8734;-61
2023/05/12 06:19:46;;;;;;;;;;;;;;;26.94;41.91;93850.88;4956185;28;7219;-61
2023/05/12 06:22:41;;;;;;;;;;;;;;;27.03;41.62;93859.47;4936980;28;9529;-61
2023/05/12 06:25:23;;;;;;;;;;;;;;;27.09;41.76;93843.53;4919907;29;8439;-61
2023/05/12 06:28:08;;;;;;;;;;;;;;;27.22;41.47;93860.06;4916811;29;7162;-60
2023/05/12 06:30:54;;;;;;;;;;;;;;;27.27;41.77;93864.75;4916075;29;9252;-61
2023/05/12 06:34:01;;;;;;;;;;;;;;;27.34;41.58;93860.59;4926181;28;7446;-61
2023/05/12 06:36:55;;;;;;;;;;;;;;;27.41;41.34;93860.69;4959906;28;7046;-61
2023/05/12 06:39:31;;;;;;;;;;;;;;;27.47;40.69;93855.06;4958265;28;7041;-61
2023/05/12 06:42:07;;;;;;;;;;;;;;;27.49;41.37;93858.75;4955136;28;8785;-62
2023/05/12 06:44:32;;;;;;;;;;;;;;;27.53;40.88;93858.44;4950200;28;9093;-61
2023/05/12 06:47:07;;;;;;;;;;;;;;;27.57;40.98;93851.31;4985027;28;8928;-61
2023/05/12 06:49:35;;;;;;;;;;;;;;;27.60;41.03;93852.22;4969213;28;8969;-61
2023/05/12 06:52:02;;;;;;;;;;;;;;;27.62;40.80;93855.22;4979872;28;9387;-61
2023/05/12 06:54:42;;;;;;;;;;;;;;;27.64;39.92;93858.19;4985639;28;9451;-61
2023/05/12 06:57:32;;;;;;;;;;;;;;;27.63;39.38;93854.66;4980080;28;8769;-61
2023/05/12 07:00:02;;;;;;;;;;;;;;;27.63;39.39;93851.91;4988592;28;7241;-61
2023/05/12 07:02:30;;;;;;;;;;;;;;;27.63;39.06;93854.66;5033938;28;9452;-61
2023/05/12 07:04:56;;;;;;;;;;;;;;;27.69;39.18;93859.34;5049200;28;8714;-61
2023/05/12 07:07:23;;;;;;;;;;;;;;;27.72;39.48;93859.00;5045310;28;7068;-61
2023/05/12 07:09:51;;;;;;;;;;;;;;;27.75;39.36;93846.13;5041585;28;7266;-61
2023/05/12 07:12:19;;;;;;;;;;;;;;;27.81;39.07;93849.50;5026844;28;7503;-61
2023/05/12 07:14:47;;;;;;;;;;;;;;;27.83;39.12;93846.94;5016890;28;7234;-61
2023/05/12 07:17:33;;;;;;;;;;;;;;;27.86;39.31;93849.34;5020759;28;7033;-61
2023/05/12 07:20:46;;;;;;;;;;;;;;;27.86;39.42;93856.91;5033563;28;7056;-61
2023/05/12 07:23:43;;;;;;;;;;;;;;;27.88;39.25;93854.34;5026532;28;7388;-61
2023/05/12 07:26:23;;;;;;;;;;;;;;;27.88;39.28;93855.09;4979730;28;8635;-61
2023/05/12 07:29:00;;;;;;;;;;;;;;;27.87;39.19;93845.31;5002746;28;7705;-61
2023/05/12 07:31:26;;;;;;;;;;;;;;;27.87;39.40;93847.34;4969700;28;7702;-61
2023/05/12 07:34:08;;;;;;;;;;;;;;;27.85;39.71;93855.44;4985589;28;7241;-61
2023/05/12 07:36:55;;;;;;;;;;;;;;;27.84;39.55;93851.19;4984777;28;7195;-61
2023/05/12 07:39:31;;;;;;;;;;;;;;;27.82;38.93;93848.94;4992705;28;8064;-61
2023/05/12 07:42:00;;;;;;;;;;;;;;;27.82;39.70;93854.47;4932724;28;7548;-61
2023/05/12 07:44:26;;;;;;;;;;;;;;;27.82;39.67;93848.22;4970216;28;8736;-61
2023/05/12 07:47:43;;;;;;;;;;;;;;;27.79;39.63;93841.00;4969849;28;8259;-61
2023/05/12 07:50:12;;;;;;;;;;;;;;;27.77;40.01;93843.56;4973229;28;7288;-61
2023/05/12 07:53:11;;;;;;;;;;;;;;;27.79;40.01;93841.00;4974600;28;7254;-61
2023/05/12 07:55:40;;;;;;;;;;;;;;;27.76;39.82;93847.59;4970253;28;8810;-61
2023/05/12 07:58:24;;;;;;;;;;;;;;;27.72;39.57;93838.91;4987196;28;9079;-61
2023/05/12 08:01:04;;;;;;;;;;;;;;;27.72;40.11;93844.44;4982102;28;6856;-61
2023/05/12 08:03:31;;;;;;;;;;;;;;;27.70;39.73;93833.91;5039959;28;8709;-61
2023/05/12 08:06:06;;;;;;;;;;;;;;;27.70;40.11;93836.69;4988069;28;7125;-61
2023/05/12 08:08:37;;;;;;;;;;;;;;;27.69;40.35;93840.72;5040243;28;7236;-61
2023/05/12 08:11:13;;;;;;;;;;;;;;;27.67;40.14;93840.50;5020974;28;9301;-61
2023/05/12 08:13:45;;;;;;;;;;;;;;;27.66;40.04;93839.03;5039113;28;7242;-62
2023/05/12 08:16:37;;;;;;;;;;;;;;;27.65;40.35;93848.59;5031986;28;7022;-61
2023/05/12 08:19:22;;;;;;;;;;;;;;;27.64;39.92;93847.84;5044040;28;7285;-61
2023/05/12 08:22:19;;;;;;;;;;;;;;;27.61;39.65;93840.66;5045889;28;7120;-62
2023/05/12 08:24:47;;;;;;;;;;;;;;;27.60;39.71;93844.69;4973637;28;9365;-61
2023/05/12 08:27:30;;;;;;;;;;;;;;;27.60;39.83;93841.91;4977458;28;8751;-61
2023/05/12 08:30:12;;;;;;;;;;;;;;;27.58;40.18;93843.72;4977374;28;7022;-61
2023/05/12 08:32:39;;;;;;;;;;;;;;;27.55;40.35;93834.53;4972316;28;7489;-61
2023/05/12 08:35:31;;;;;;;;;;;;;;;27.57;40.10;93843.00;4969855;28;7036;-61
2023/05/12 08:38:27;;;;;;;;;;;;;;;27.57;40.00;93843.00;4978655;28;7267;-61
2023/05/12 08:40:59;;;;;;;;;;;;;;;27.58;39.82;93836.19;4986508;28;6996;-61
2023/05/12 08:44:05;;;;;;;;;;;;;;;27.59;40.38;93839.69;4990249;28;6980;-61
2023/05/12 08:46:55;;;;;;;;;;;;;;;27.57;40.42;93839.50;4985742;28;7174;-62
2023/05/12 08:50:00;;;;;;;;;;;;;;;27.54;40.19;93833.03;4973117;28;7287;-62
2023/05/12 08:52:31;;;;;;;;;;;;;;;27.53;40.21;93841.84;4913413;29;9010;-62
2023/05/12 08:55:29;;;;;;;;;;;;;;;27.52;40.23;93838.34;4897960;29;7472;-62
2023/05/12 08:57:58;;;;;;;;;;;;;;;27.49;39.77;93839.41;4916763;29;9029;-61
2023/05/12 09:00:27;;;;;;;;;;;;;;;27.50;39.94;93843.66;4924718;28;7215;-62
2023/05/12 09:03:22;;;;;;;;;;;;;;;27.49;39.78;93835.94;4953467;28;9371;-62
2023/05/12 09:06:00;;;;;;;;;;;;;;;27.48;39.78;93837.94;4901252;29;9146;-63
2023/05/12 09:08:31;;;;;;;;;;;;;;;27.45;39.71;93838.25;4886023;29;9126;-63
2023/05/12 09:11:00;;;;;;;;;;;;;;;27.42;40.15;93831.81;4903984;29;9016;-63
2023/05/12 09:13:48;;;;;;;;;;;;;;;27.39;40.25;93834.88;4905478;29;9000;-63
2023/05/12 09:16:20;;;;;;;;;;;;;;;27.38;40.13;93834.13;4900342;29;7497;-63
2023/05/12 09:18:54;;;;;;;;;;;;;;;27.37;40.25;93834.66;4890888;29;8956;-62
2023/05/12 09:21:23;;;;;;;;;;;;;;;27.35;40.45;93826.94;4910799;29;9208;-62
2023/05/12 09:24:04;;;;;;;;;;;;;;;27.36;40.79;93833.22;4895530;29;7410;-62
2023/05/12 09:26:53;;;;;;;;;;;;;;;27.35;40.74;93828.91;4888751;29;7267;-63
2023/05/12 09:29:33;;;;;;;;;;;;;;;27.33;40.78;93832.22;4952758;28;7184;-63
2023/05/12 09:32:13;;;;;;;;;;;;;;;27.30;40.74;93827.75;4968727;28;8817;-62
2023/05/12 09:35:16;;;;;;;;;;;;;;;27.29;40.85;93828.31;4956518;28;9125;-62
2023/05/12 09:37:53;;;;;;;;;;;;;;;27.29;40.71;93829.06;4950890;28;9222;-62
2023/05/12 09:40:52;;;;;;;;;;;;;;;27.28;40.84;93829.56;4966346;28;9505;-62
2023/05/12 09:43:19;;;;;;;;;;;;;;;27.27;40.67;93830.88;5025606;28;8964;-63
2023/05/12 09:46:17;;;;;;;;;;;;;;;27.26;41.24;93829.38;5029546;28;9263;-62
2023/05/12 09:48:58;;;;;;;;;;;;;;;27.27;41.20;93831.59;5025690;28;7398;-63
2023/05/12 09:51:26;;;;;;;;;;;;;;;27.28;41.31;93832.34;5048500;28;7240;-63
2023/05/12 09:54:11;;;;;;;;;;;;;;;27.28;41.13;93837.84;5046340;28;8683;-63
2023/05/12 09:56:56;;;;;;;;;;;;;;;27.24;41.66;93824.38;5025334;28;7268;-62
2023/05/12 09:59:25;;;;;;;;;;;;;;;27.26;41.45;93837.66;5043495;28;7029;-62
2023/05/12 10:02:01;;;;;;;;;;;;;;;27.24;41.77;93827.16;5044804;28;7283;-62
2023/05/12 10:04:43;;;;;;;;;;;;;;;27.24;41.58;93824.38;5045988;28;9068;-62
2023/05/12 10:07:13;;;;;;;;;;;;;;;27.25;42.20;93825.84;5022191;28;6993;-61
2023/05/12 10:10:00;;;;;;;;;;;;;;;27.26;41.59;93824.59;5042716;28;9335;-61
2023/05/12 10:12:34;;;;;;;;;;;;;;;27.25;41.52;93825.13;5037476;28;7261;-62
2023/05/12 10:15:03;;;;;;;;;;;;;;;27.26;41.55;93824.59;5045105;28;9077;-62
2023/05/12 10:17:30;;;;;;;;;;;;;;;27.25;41.22;93820.34;5031542;28;7038;-61
2023/05/12 10:20:05;;;;;;;;;;;;;;;27.24;41.33;93816.09;5044856;28;7251;-61
2023/05/12 10:22:44;;;;;;;;;;;;;;;27.25;42.03;93828.63;5042999;28;9152;-61
2023/05/12 10:25:18;;;;;;;;;;;;;;;27.22;42.16;93818.66;5045358;28;6989;-62
2023/05/12 10:27:55;;;;;;;;;;;;;;;27.25;42.24;93822.38;5029328;28;9132;-61
2023/05/12 10:30:23;;;;;;;;;;;;;;;27.28;42.25;93822.03;5046147;28;6999;-62
2023/05/12 10:32:51;;;;;;;;;;;;;;;27.30;42.31;93810.44;5030714;28;7092;-62
2023/05/12 10:35:31;;;;;;;;;;;;;;;27.28;42.63;93813.75;5029455;28;8648;-62
2023/05/12 10:38:06;;;;;;;;;;;;;;;27.28;42.34;93816.50;5043210;28;7440;-62
2023/05/12 10:40:34;;;;;;;;;;;;;;;27.29;43.19;93818.00;5044963;28;8343;-62
2023/05/12 10:43:20;;;;;;;;;;;;;;;27.29;43.48;93809.72;5044481;28;7867;-62
2023/05/12 10:45:46;;;;;;;;;;;;;;;27.32;43.92;93813.41;5050738;28;9120;-62
2023/05/12 10:55:42;;;;;;;;;;;;;;;27.31;43.58;93804.41;5042123;28;7234;-62
2023/05/12 10:58:11;;;;;;;;;;;;;;;27.27;43.60;93804.00;5025825;28;7047;-62
2023/05/12 11:00:46;;;;;;;;;;;;;;;27.28;43.43;93802.72;5044087;28;9124;-62
2023/05/12 11:03:23;;;;;;;;;;;;;;;27.30;43.71;93804.91;5043644;28;7221;-62
2023/05/12 11:06:04;;;;;;;;;;;;;;;27.32;43.28;93816.91;5022581;28;7024;-63
2023/05/12 11:08:49;;;;;;;;;;;;;;;27.34;42.95;93819.88;5041928;28;9084;-62
2023/05/12 11:11:42;;;;;;;;;;;;;;;27.36;42.91;93811.13;5023641;28;7511;-62
2023/05/12 11:14:12;;;;;;;;;;;;;;;27.37;42.49;93813.31;5019960;28;7266;-62
2023/05/12 11:16:52;;;;;;;;;;;;;;;27.42;42.35;93803.44;5045469;28;8599;-62
2023/05/12 11:19:54;;;;;;;;;;;;;;;27.43;41.84;93802.16;5049554;28;7121;-62
2023/05/12 11:22:49;;;;;;;;;;;;;;;27.45;41.79;93805.84;4983741;28;9418;-62
2023/05/12 11:25:38;;;;;;;;;;;;;;;27.47;41.85;93808.81;4987934;28;7044;-62
2023/05/12 11:28:24;;;;;;;;;;;;;;;27.47;41.74;93808.81;4969051;28;9116;-62
2023/05/12 11:31:18;;;;;;;;;;;;;;;27.43;41.60;93813.94;4978093;28;7054;-62
2023/05/12 11:33:45;;;;;;;;;;;;;;;27.44;41.79;93807.16;4984991;28;7165;-62
2023/05/12 11:36:13;;;;;;;;;;;;;;;27.48;41.75;93806.81;4981146;28;7044;-62
2023/05/12 11:38:51;;;;;;;;;;;;;;;27.42;42.02;93804.19;4981024;28;7338;-62
2023/05/12 11:41:28;;;;;;;;;;;;;;;27.44;41.64;93804.38;4965231;28;8804;-61
2023/05/12 11:44:40;;;;;;;;;;;;;;;27.43;41.58;93805.66;4978035;28;7485;-61
2023/05/12 11:47:13;;;;;;;;;;;;;;;27.45;41.56;93803.09;4958388;28;9337;-61
2023/05/12 11:50:20;;;;;;;;;;;;;;;27.49;41.53;93802.78;4955127;28;9033;-61
2023/05/12 11:53:11;;;;;;;;;;;;;;;27.47;41.44;93797.06;4970774;28;9135;-61
2023/05/12 11:55:47;;;;;;;;;;;;;;;27.50;41.09;93798.72;4950984;28;8708;-61
2023/05/12 11:58:20;;;;;;;;;;;;;;;27.48;41.73;93796.50;4974201;28;9199;-61
2023/05/12 12:00:47;;;;;;;;;;;;;;;27.49;43.76;93797.97;4965436;28;8802;-61
2023/05/12 12:03:15;;;;;;;;;;;;;;;27.54;42.67;93801.88;4967984;28;7211;-60
2023/05/12 12:05:47;;;;;;;;;;;;;;;27.50;42.12;93795.97;4966996;28;9078;-60
2023/05/12 12:08:28;;;;;;;;;;;;;;;27.54;41.68;93796.38;4965280;28;9231;-61
2023/05/12 12:11:32;;;;;;;;;;;;;;;27.57;41.53;93798.81;4982352;28;9010;-62
2023/05/12 12:14:46;;;;;;;;;;;;;;;27.55;41.57;93801.38;4988958;28;8758;-62
2023/05/12 12:17:16;;;;;;;;;;;;;;;27.51;41.84;93798.19;4974027;28;8459;-62
2023/05/12 12:19:42;;;;;;;;;;;;;;;27.53;41.85;93801.13;4971698;28;9044;-62
2023/05/12 12:22:19;;;;;;;;;;;;;;;27.57;41.73;93798.81;4956945;28;7258;-62
2023/05/12 12:25:36;;;;;;;;;;;;;;;27.58;41.83;93791.25;4975926;28;9025;-62
2023/05/12 12:28:22;;;;;;;;;;;;;;;27.60;41.75;93794.22;4991671;28;7035;-61
2023/05/12 12:31:00;;;;;;;;;;;;;;;27.60;42.09;93791.44;5013138;28;9112;-61
2023/05/12 12:33:34;;;;;;;;;;;;;;;27.60;42.15;93794.94;5005690;28;7257;-61
2023/05/12 12:36:01;;;;;;;;;;;;;;;27.59;42.26;93793.47;4986679;28;7647;-61
2023/05/12 12:38:56;;;;;;;;;;;;;;;27.63;41.84;93799.41;5009203;28;8745;-61
2023/05/12 12:41:53;;;;;;;;;;;;;;;27.63;42.34;93799.41;4998053;28;8972;-61
2023/05/12 12:44:38;;;;;;;;;;;;;;;27.64;42.07;93789.09;4953825;28;7058;-61
2023/05/12 12:47:04;;;;;;;;;;;;;;;27.68;42.19;93799.81;4939125;28;9387;-61
2023/05/12 12:49:59;;;;;;;;;;;;;;;27.68;42.37;93788.75;4946856;28;7135;-61
2023/05/12 12:52:36;;;;;;;;;;;;;;;27.71;42.40;93790.47;4937518;28;9435;-61
2023/05/12 12:55:20;;;;;;;;;;;;;;;27.72;42.37;93789.91;4918935;29;7843;-61
2023/05/12 12:58:18;;;;;;;;;;;;;;;27.74;42.36;93784.59;4922116;28;9150;-61
2023/05/12 13:00:45;;;;;;;;;;;;;;;27.74;42.27;93778.31;4924852;29;7834;-60
2023/05/12 13:03:21;;;;;;;;;;;;;;;27.74;42.28;93776.28;4944567;28;7295;-61
2023/05/12 13:06:28;;;;;;;;;;;;;;;27.71;42.53;93780.13;4927378;28;8548;-61
2023/05/12 13:08:56;;;;;;;;;;;;;;;27.67;42.43;93778.97;4948875;28;7203;-61
2023/05/12 13:11:33;;;;;;;;;;;;;;;27.67;42.54;93778.97;4941938;28;8725;-62
2023/05/12 13:14:14;;;;;;;;;;;;;;;27.64;42.84;93776.00;4949562;28;7185;-62
2023/05/12 13:16:50;;;;;;;;;;;;;;;27.64;42.64;93781.53;4935251;28;7336;-62
2023/05/12 13:19:42;;;;;;;;;;;;;;;27.66;42.85;93778.25;4937443;28;7184;-62
2023/05/12 13:22:35;;;;;;;;;;;;;;;27.66;42.55;93772.72;4997849;28;7306;-62
2023/05/12 13:25:06;;;;;;;;;;;;;;;27.63;42.72;93774.53;5004389;28;9621;-61
2023/05/12 13:27:36;;;;;;;;;;;;;;;27.64;42.67;93780.81;5002042;28;8994;-62
2023/05/12 13:30:23;;;;;;;;;;;;;;;27.67;42.62;93773.44;5029757;28;7052;-62
2023/05/12 13:33:09;;;;;;;;;;;;;;;27.67;42.32;93773.44;5044261;28;7119;-61
2023/05/12 13:35:54;;;;;;;;;;;;;;;27.67;42.95;93773.44;5024801;28;8960;-62
2023/05/12 13:38:30;;;;;;;;;;;;;;;27.66;42.69;93772.72;5030447;28;7036;-61
2023/05/12 13:41:09;;;;;;;;;;;;;;;27.64;42.52;93767.72;5050158;28;7584;-61
2023/05/12 13:43:50;;;;;;;;;;;;;;;27.65;42.53;93765.72;5033908;28;7085;-61
2023/05/12 13:46:16;;;;;;;;;;;;;;;27.66;42.41;93772.00;5047161;28;7312;-62
2023/05/12 13:48:47;;;;;;;;;;;;;;;27.64;42.25;93772.53;5045565;28;9140;-61
2023/05/12 13:51:33;;;;;;;;;;;;;;;27.67;42.70;93768.69;5039715;28;7154;-61
2023/05/12 13:53:59;;;;;;;;;;;;;;;27.66;42.87;93766.47;5049605;28;7237;-61
2023/05/12 13:56:26;;;;;;;;;;;;;;;27.67;42.85;93762.41;5027269;28;6858;-61
2023/05/12 13:58:56;;;;;;;;;;;;;;;27.68;42.50;93763.91;5035498;28;7211;-61
2023/05/12 14:01:29;;;;;;;;;;;;;;;27.72;42.71;93769.81;5025095;28;9495;-61
2023/05/12 14:04:21;;;;;;;;;;;;;;;27.74;42.74;93764.50;5035165;28;7239;-61
2023/05/12 14:06:58;;;;;;;;;;;;;;;27.76;42.53;93756.41;5040661;28;7331;-61
2023/05/12 14:09:52;;;;;;;;;;;;;;;27.77;42.80;93749.59;5039680;28;8744;-61
2023/05/12 14:12:35;;;;;;;;;;;;;;;27.81;42.73;93750.00;4972772;28;9381;-61
2023/05/12 14:15:11;;;;;;;;;;;;;;;27.87;42.92;93743.06;4981448;28;7250;-61
2023/05/12 14:17:37;;;;;;;;;;;;;;;27.90;42.45;93744.00;4956866;28;7188;-61
2023/05/12 14:20:13;;;;;;;;;;;;;;;27.91;41.92;93737.19;4970288;28;9064;-61
2023/05/12 14:22:59;;;;;;;;;;;;;;;27.94;42.11;93738.88;4956600;28;7308;-62
2023/05/12 14:25:24;;;;;;;;;;;;;;;27.96;42.76;93747.34;4954508;28;7352;-62